YMML/MEL METAR and TAF weather

Enter ICAO airport designator
Station Type Date Time Source
YMML METAR 2021/09/23 23:30 UTC NOAA

YMML 232330Z 31017KT 9999 FEW036 17/07 Q1009


Station Type Date Time Source
YMML Decoded METAR 2021/09/23 23:30 UTC NOAA

Melbourne Airport, Australia (YMML) 37-40S 144-50E 141M
Sep 23, 2021 - 07:30 PM EDT / 2021.09.23 2330 UTC
Wind: from the NW (310 degrees) at 20 MPH (17 KT):0
Visibility: greater than 7 mile(s):0
Sky conditions: mostly clear
Temperature: 62 F (17 C)
Dew Point: 44 F (7 C)
Relative Humidity: 51%
Pressure (altimeter): 29.80 in. Hg (1009 hPa)
ob: YMML 232330Z 31017KT 9999 FEW036 17/07 Q1009
cycle: 23

Station Type Date Time Source
YMML TAF 2021/09/23 21:47 UTC NOAA

TAF YMML 232008Z 2321/2500 34014KT CAVOK
BECMG 2322/2323 30018G28KT 9999 SCT040
FM240100 28022G38KT 9999 -SHRA SCT030
FM240600 26018G28KT 9999 NSW SCT030
FM240900 25014KT 9999 -SHRA BKN030
FM241500 25012KT 9999 NSW FEW035

Example: see airport list